createdAt,value
2023-03-12T00:01:24.736Z,99.90
2023-03-12T00:03:51.986Z,99.90
2023-03-12T00:06:18.945Z,99.90
2023-03-12T00:08:45.815Z,99.90
2023-03-12T00:11:13.638Z,99.90
2023-03-12T00:13:43.262Z,99.90
2023-03-12T00:16:15.687Z,99.90
2023-03-12T00:18:42.939Z,99.90
2023-03-12T00:21:10.177Z,99.90
2023-03-12T00:23:37.066Z,99.90
2023-03-12T00:26:05.401Z,99.90
2023-03-12T00:28:32.329Z,99.90
2023-03-12T00:31:01.790Z,99.90
2023-03-12T00:33:31.629Z,99.90
2023-03-12T00:36:00.146Z,99.90
2023-03-12T00:38:26.918Z,99.90
2023-03-12T00:40:53.696Z,99.90
2023-03-12T00:43:23.039Z,99.90
2023-03-12T00:45:49.990Z,99.90
2023-03-12T00:48:16.766Z,99.90
2023-03-12T00:50:45.622Z,99.90
2023-03-12T00:53:12.414Z,99.90
2023-03-12T00:55:39.156Z,99.90
2023-03-12T00:58:05.950Z,99.90
2023-03-12T01:00:32.837Z,99.90
2023-03-12T01:02:59.624Z,99.90
2023-03-12T01:05:26.683Z,99.90
2023-03-12T01:07:53.550Z,99.90
2023-03-12T01:10:20.986Z,99.90
2023-03-12T01:12:47.933Z,99.90
2023-03-12T01:15:15.901Z,99.90
2023-03-12T01:18:02.922Z,99.90
2023-03-12T01:20:29.770Z,99.90
2023-03-12T01:22:56.621Z,99.90
2023-03-12T01:25:23.441Z,99.90
2023-03-12T01:27:50.256Z,99.90
2023-03-12T01:30:17.113Z,99.90
2023-03-12T01:32:43.974Z,99.90
2023-03-12T01:35:10.837Z,99.90
2023-03-12T01:37:37.619Z,99.90
2023-03-12T01:40:14.036Z,99.90
2023-03-12T01:42:43.331Z,99.90
2023-03-12T01:45:31.655Z,99.90
2023-03-12T01:48:01.035Z,99.90
2023-03-12T01:50:28.543Z,99.90
2023-03-12T01:52:55.487Z,99.90
2023-03-12T01:55:22.231Z,99.90
2023-03-12T01:57:50.728Z,99.90
2023-03-12T02:00:20.015Z,99.90
2023-03-12T02:02:50.868Z,99.90
2023-03-12T02:05:27.477Z,99.90
2023-03-12T02:07:55.007Z,99.90
2023-03-12T02:10:22.335Z,99.90
2023-03-12T02:12:49.233Z,99.90
2023-03-12T02:15:16.245Z,99.90
2023-03-12T02:17:43.099Z,99.90
2023-03-12T02:20:10.971Z,99.90
2023-03-12T02:22:42.280Z,99.90
2023-03-12T02:25:27.445Z,99.90
2023-03-12T02:27:54.326Z,99.90
2023-03-12T02:30:21.352Z,99.90
2023-03-12T02:32:50.199Z,99.90
2023-03-12T02:35:17.665Z,99.90
2023-03-12T02:37:51.546Z,99.90
2023-03-12T02:40:25.937Z,99.90
2023-03-12T02:42:53.170Z,99.90
2023-03-12T02:45:20.229Z,99.90
2023-03-12T02:47:46.975Z,99.90
2023-03-12T02:50:13.903Z,99.90
2023-03-12T02:52:40.689Z,99.90
2023-03-12T02:55:07.692Z,99.90
2023-03-12T02:57:37.525Z,99.90
2023-03-12T03:00:11.991Z,99.90
2023-03-12T03:02:41.189Z,99.90
2023-03-12T03:05:08.904Z,99.90
2023-03-12T03:07:38.327Z,99.90
2023-03-12T03:10:05.727Z,99.90
2023-03-12T03:12:34.447Z,99.90
2023-03-12T03:15:05.550Z,99.90
2023-03-12T03:17:32.329Z,99.90
2023-03-12T03:20:07.061Z,99.90
2023-03-12T03:22:33.807Z,99.90
2023-03-12T03:25:03.206Z,99.90
2023-03-12T03:27:32.281Z,99.90
2023-03-12T03:29:59.176Z,99.90
2023-03-12T03:32:26.639Z,99.90
2023-03-12T03:34:53.427Z,99.90
2023-03-12T03:37:20.230Z,99.90
2023-03-12T03:39:47.217Z,99.90
2023-03-12T03:42:14.355Z,99.90
2023-03-12T03:44:42.335Z,99.90
2023-03-12T03:47:11.130Z,99.90
2023-03-12T03:49:37.940Z,99.90
2023-03-12T03:52:04.765Z,99.90
2023-03-12T03:54:35.068Z,99.90
2023-03-12T03:57:03.279Z,99.90
2023-03-12T03:59:32.529Z,99.90
2023-03-12T04:01:59.457Z,99.90
2023-03-12T04:04:26.466Z,99.90
2023-03-12T04:06:53.328Z,99.90
2023-03-12T04:09:20.075Z,99.90
2023-03-12T04:11:46.875Z,99.90
2023-03-12T04:14:16.849Z,99.90
2023-03-12T04:16:45.112Z,99.90
2023-03-12T04:19:12.070Z,99.90
2023-03-12T04:21:42.416Z,99.90
2023-03-12T04:24:13.108Z,99.90
2023-03-12T04:26:40.030Z,99.90
2023-03-12T04:29:08.220Z,99.90
2023-03-12T04:31:35.166Z,99.90
2023-03-12T04:34:02.169Z,99.90
2023-03-12T04:36:29.357Z,99.90
2023-03-12T04:38:58.852Z,99.90
2023-03-12T04:41:30.451Z,99.90
2023-03-12T04:44:23.222Z,99.90
2023-03-12T04:46:50.375Z,99.90
2023-03-12T04:49:20.406Z,99.90
2023-03-12T04:51:47.275Z,99.90
2023-03-12T04:54:14.138Z,99.90
2023-03-12T04:56:42.600Z,99.90
2023-03-12T04:59:09.353Z,99.90
2023-03-12T05:01:37.043Z,99.90
2023-03-12T05:04:09.084Z,99.90
2023-03-12T05:06:35.997Z,99.90
2023-03-12T05:09:03.964Z,99.90
2023-03-12T05:11:30.751Z,99.90
2023-03-12T05:13:57.668Z,99.90
2023-03-12T05:16:24.487Z,99.90
2023-03-12T05:18:51.465Z,99.90
2023-03-12T05:21:19.540Z,99.90
2023-03-12T05:23:48.090Z,99.90
2023-03-12T05:26:20.604Z,99.90
2023-03-12T05:28:47.627Z,99.90
2023-03-12T05:31:17.484Z,99.90
2023-03-12T05:33:45.361Z,99.90
2023-03-12T05:36:15.063Z,99.90
2023-03-12T05:38:44.059Z,99.90
2023-03-12T05:41:27.624Z,99.90
2023-03-12T05:44:01.216Z,99.90
2023-03-12T05:46:28.976Z,99.90
2023-03-12T05:48:55.852Z,99.90
2023-03-12T05:51:23.093Z,99.90
2023-03-12T05:53:49.999Z,99.90
2023-03-12T05:56:17.723Z,99.90
2023-03-12T05:58:44.847Z,99.90
2023-03-12T06:01:16.734Z,99.90
2023-03-12T06:03:44.458Z,99.90
2023-03-12T06:06:15.350Z,99.90
2023-03-12T06:08:42.360Z,99.90
2023-03-12T06:11:11.020Z,99.90
2023-03-12T06:13:37.967Z,99.90
2023-03-12T06:16:21.792Z,99.90
2023-03-12T06:18:49.345Z,99.90
2023-03-12T06:21:18.830Z,99.90
2023-03-12T06:23:46.766Z,99.90
2023-03-12T06:26:18.792Z,99.90
2023-03-12T06:28:46.504Z,99.90
2023-03-12T06:31:15.998Z,99.90
2023-03-12T06:33:42.883Z,99.90
2023-03-12T06:36:12.074Z,99.90
2023-03-12T06:38:39.183Z,99.90
2023-03-12T06:41:13.840Z,99.90
2023-03-12T06:43:41.122Z,99.90
2023-03-12T06:46:11.448Z,99.90
2023-03-12T06:48:41.130Z,99.90
2023-03-12T06:51:08.784Z,99.90
2023-03-12T06:53:35.930Z,99.90
2023-03-12T06:56:02.830Z,99.90
2023-03-12T06:58:30.024Z,99.90
2023-03-12T07:00:57.009Z,99.90
2023-03-12T07:03:26.166Z,99.90
2023-03-12T07:05:57.964Z,99.90
2023-03-12T07:08:25.320Z,99.90
2023-03-12T07:10:52.104Z,99.90
2023-03-12T07:13:18.968Z,99.90
2023-03-12T07:15:46.481Z,99.90
2023-03-12T07:18:15.749Z,99.90
2023-03-12T07:20:43.423Z,99.90
2023-03-12T07:23:12.693Z,99.90
2023-03-12T07:25:40.440Z,99.90
2023-03-12T07:28:07.876Z,99.90
2023-03-12T07:30:35.020Z,99.90
2023-03-12T07:33:02.642Z,99.90
2023-03-12T07:35:29.915Z,99.90
2023-03-12T07:37:57.041Z,99.90
2023-03-12T07:40:23.996Z,99.90
2023-03-12T07:42:51.967Z,99.90
2023-03-12T07:45:21.737Z,99.90
2023-03-12T07:47:49.594Z,99.90
2023-03-12T07:50:19.897Z,99.90
2023-03-12T07:52:49.559Z,99.90
2023-03-12T07:55:16.743Z,99.90
2023-03-12T07:57:45.955Z,99.90
2023-03-12T08:00:17.203Z,99.90
2023-03-12T08:02:44.417Z,99.90
2023-03-12T08:05:11.459Z,99.90
2023-03-12T08:07:38.462Z,99.90
2023-03-12T08:10:08.643Z,99.90
2023-03-12T08:12:37.624Z,99.90
2023-03-12T08:15:06.364Z,99.90
2023-03-12T08:17:33.411Z,99.90
2023-03-12T08:20:00.244Z,99.90
2023-03-12T08:22:27.162Z,99.90
2023-03-12T08:24:56.217Z,99.90
2023-03-12T08:27:23.338Z,99.90
2023-03-12T08:29:52.410Z,99.90
2023-03-12T08:32:19.532Z,99.90
2023-03-12T08:34:49.020Z,99.90
2023-03-12T08:37:18.452Z,99.90
2023-03-12T08:39:47.420Z,99.90
2023-03-12T08:42:14.781Z,99.90
2023-03-12T08:44:46.634Z,99.90
2023-03-12T08:47:13.567Z,99.90
2023-03-12T08:49:45.015Z,99.90
2023-03-12T08:52:12.131Z,99.90
2023-03-12T08:54:39.146Z,99.90
2023-03-12T08:57:06.342Z,99.90
2023-03-12T08:59:33.518Z,99.90
2023-03-12T09:02:01.391Z,99.90
2023-03-12T09:04:28.572Z,99.90
2023-03-12T09:06:55.556Z,99.90
2023-03-12T09:09:22.478Z,99.90
2023-03-12T09:11:49.436Z,99.90
2023-03-12T09:17:05.738Z,99.90
2023-03-12T09:19:32.910Z,99.90
2023-03-12T09:22:01.934Z,99.90
2023-03-12T09:24:29.285Z,99.90
2023-03-12T09:26:56.598Z,99.90
2023-03-12T09:29:23.615Z,99.90
2023-03-12T09:31:53.228Z,99.90
2023-03-12T09:34:20.080Z,99.90
2023-03-12T09:36:47.002Z,99.90
2023-03-12T09:39:16.169Z,99.90
2023-03-12T09:41:47.734Z,99.90
2023-03-12T09:44:36.554Z,99.90
2023-03-12T09:47:14.334Z,99.90
2023-03-12T09:49:51.127Z,99.90
2023-03-12T09:52:24.529Z,99.90
2023-03-12T09:55:06.925Z,99.30
2023-03-12T09:57:36.476Z,98.90
2023-03-12T10:00:10.573Z,98.30
2023-03-12T10:02:57.118Z,97.80
2023-03-12T10:05:37.766Z,96.70
2023-03-12T10:08:24.499Z,97.30
2023-03-12T10:11:23.495Z,97.10
2023-03-12T10:14:23.922Z,98.00
2023-03-12T10:17:22.303Z,98.20
2023-03-12T10:19:59.491Z,97.40
2023-03-12T10:22:47.630Z,97.50
2023-03-12T10:25:20.633Z,97.90
2023-03-12T10:27:48.263Z,97.00
2023-03-12T10:30:28.726Z,95.40
2023-03-12T10:33:06.744Z,95.10
2023-03-12T10:35:33.872Z,96.10
2023-03-12T10:38:03.178Z,95.80
2023-03-12T10:40:36.051Z,95.90
2023-03-12T10:43:06.905Z,97.20
2023-03-12T10:45:43.632Z,95.60
2023-03-12T10:48:22.448Z,96.10
2023-03-12T10:51:07.932Z,96.90
2023-03-12T10:53:44.706Z,96.30
2023-03-12T10:56:15.644Z,97.20
2023-03-12T10:58:45.409Z,97.00
2023-03-12T11:01:18.804Z,97.80
2023-03-12T11:03:46.569Z,98.30
2023-03-12T11:06:28.660Z,96.90
2023-03-12T11:09:17.565Z,97.20
2023-03-12T11:11:49.049Z,97.50
2023-03-12T11:14:23.722Z,97.70
2023-03-12T11:16:52.472Z,98.10
2023-03-12T11:19:27.614Z,97.60
2023-03-12T11:22:00.998Z,98.00
2023-03-12T11:24:28.829Z,98.50
2023-03-12T11:27:37.344Z,99.10
2023-03-12T11:30:11.097Z,98.50
2023-03-12T11:32:46.582Z,97.80
2023-03-12T11:35:15.926Z,97.50
2023-03-12T11:37:57.831Z,97.60
2023-03-12T11:40:52.840Z,96.80
2023-03-12T11:43:53.409Z,97.80
2023-03-12T11:46:39.013Z,97.30
2023-03-12T11:49:14.814Z,97.90
2023-03-12T11:52:03.567Z,97.50
2023-03-12T11:54:33.577Z,97.40
2023-03-12T11:57:20.687Z,95.80
2023-03-12T12:00:30.741Z,96.30
2023-03-12T12:03:12.583Z,96.70
2023-03-12T12:06:00.910Z,97.20
2023-03-12T12:08:48.989Z,96.50
2023-03-12T12:11:28.624Z,95.80
2023-03-12T12:14:04.619Z,95.60
2023-03-12T12:16:37.345Z,96.80
2023-03-12T12:19:41.924Z,95.80
2023-03-12T12:22:26.651Z,94.20
2023-03-12T12:24:56.760Z,94.60
2023-03-12T12:27:29.919Z,91.90
2023-03-12T12:30:21.552Z,91.70
2023-03-12T12:32:54.598Z,91.20
2023-03-12T12:35:35.293Z,91.30
2023-03-12T12:38:19.816Z,91.90
2023-03-12T12:40:54.569Z,91.80
2023-03-12T12:43:35.301Z,92.10
2023-03-12T12:46:33.621Z,91.80
2023-03-12T12:49:14.759Z,91.70
2023-03-12T12:51:47.726Z,91.90
2023-03-12T12:54:37.430Z,90.70
2023-03-12T12:57:36.946Z,91.80
2023-03-12T13:00:06.219Z,91.60
2023-03-12T13:02:37.926Z,92.60
2023-03-12T13:05:22.677Z,91.20
2023-03-12T13:07:51.682Z,92.70
2023-03-12T13:10:33.350Z,93.10
2023-03-12T13:13:00.759Z,92.40
2023-03-12T13:15:30.653Z,92.50
2023-03-12T13:18:03.831Z,93.00
2023-03-12T13:20:52.653Z,93.10
2023-03-12T13:23:25.426Z,93.70
2023-03-12T13:25:52.328Z,93.30
2023-03-12T13:28:35.924Z,93.20
2023-03-12T13:31:17.216Z,92.90
2023-03-12T13:33:46.198Z,93.60
2023-03-12T13:36:15.975Z,94.40
2023-03-12T13:39:03.903Z,95.00
2023-03-12T13:41:31.881Z,95.10
2023-03-12T13:44:20.907Z,94.80
2023-03-12T13:46:57.989Z,94.80
2023-03-12T13:49:25.290Z,94.30
2023-03-12T13:52:10.156Z,94.20
2023-03-12T13:54:41.712Z,94.10
2023-03-12T13:57:13.577Z,94.10
2023-03-12T13:59:45.345Z,93.80
2023-03-12T14:02:19.489Z,93.80
2023-03-12T14:04:46.362Z,93.60
2023-03-12T14:07:28.482Z,94.40
2023-03-12T14:10:08.899Z,94.20
2023-03-12T14:12:39.035Z,94.40
2023-03-12T14:15:08.283Z,94.20
2023-03-12T14:17:37.984Z,94.40
2023-03-12T14:20:10.576Z,94.60
2023-03-12T14:22:38.936Z,95.70
2023-03-12T14:25:17.721Z,95.50
2023-03-12T14:27:49.799Z,94.80
2023-03-12T14:30:22.407Z,95.00
2023-03-12T14:32:52.321Z,95.50
2023-03-12T14:35:28.283Z,95.40
2023-03-12T14:37:55.693Z,95.30
2023-03-12T14:40:34.734Z,95.90
2023-03-12T14:43:01.671Z,96.40
2023-03-12T14:45:28.501Z,96.10
2023-03-12T14:47:56.696Z,96.40
2023-03-12T14:50:26.461Z,96.90
2023-03-12T14:52:53.640Z,97.00
2023-03-12T14:55:22.706Z,96.40
2023-03-12T14:57:50.042Z,97.30
2023-03-12T15:00:23.268Z,98.00
2023-03-12T15:02:52.184Z,97.70
2023-03-12T15:05:22.424Z,97.10
2023-03-12T15:07:50.238Z,97.80
2023-03-12T15:10:20.069Z,98.40
2023-03-12T15:12:47.019Z,98.00
2023-03-12T15:15:32.932Z,98.60
2023-03-12T15:17:59.715Z,98.20
2023-03-12T15:20:26.815Z,99.10
2023-03-12T15:22:55.946Z,98.80
2023-03-12T15:25:27.908Z,99.30
2023-03-12T15:28:02.095Z,99.30
2023-03-12T15:30:31.346Z,99.60
2023-03-12T15:33:09.857Z,99.90
2023-03-12T15:35:38.194Z,99.90
2023-03-12T15:38:05.128Z,99.90
2023-03-12T15:40:34.998Z,99.90
2023-03-12T15:43:03.296Z,99.90
2023-03-12T15:45:38.264Z,99.90
2023-03-12T15:48:25.478Z,99.90
2023-03-12T15:50:52.286Z,99.90
2023-03-12T15:53:19.021Z,99.90
2023-03-12T15:55:58.571Z,99.90
2023-03-12T15:58:31.655Z,99.90
2023-03-12T16:01:08.817Z,99.90
2023-03-12T16:03:38.902Z,99.90
2023-03-12T16:06:06.431Z,99.90
2023-03-12T16:08:56.297Z,99.90
2023-03-12T16:11:24.519Z,99.90
2023-03-12T16:13:54.122Z,99.90
2023-03-12T16:16:20.890Z,99.90
2023-03-12T16:18:47.704Z,99.90
2023-03-12T16:21:14.565Z,99.90
2023-03-12T16:23:41.307Z,99.90
2023-03-12T16:26:08.092Z,99.90
2023-03-12T16:28:36.321Z,99.90
2023-03-12T16:31:03.467Z,99.90
2023-03-12T16:33:30.293Z,99.90
2023-03-12T16:35:59.340Z,99.90
2023-03-12T16:38:26.118Z,99.90
2023-03-12T16:40:53.103Z,99.90
2023-03-12T16:43:19.809Z,99.90
2023-03-12T16:45:47.502Z,99.90
2023-03-12T16:48:16.041Z,99.90
2023-03-12T16:50:46.999Z,99.90
2023-03-12T16:53:13.851Z,99.90
2023-03-12T16:55:45.367Z,99.90
2023-03-12T16:58:15.579Z,99.90
2023-03-12T17:00:45.522Z,99.90
2023-03-12T17:03:32.871Z,99.90
2023-03-12T17:06:01.147Z,99.90
2023-03-12T17:08:27.894Z,99.90
2023-03-12T17:10:59.827Z,99.90
2023-03-12T17:13:27.795Z,99.90
2023-03-12T17:15:54.840Z,99.90
2023-03-12T17:18:22.295Z,99.90
2023-03-12T17:20:50.836Z,99.90
2023-03-12T17:23:17.616Z,99.90
2023-03-12T17:25:47.239Z,99.90
2023-03-12T17:28:15.277Z,99.90
2023-03-12T17:30:42.734Z,99.90
2023-03-12T17:33:13.133Z,99.90
2023-03-12T17:35:40.299Z,99.90
2023-03-12T17:38:10.333Z,99.90
2023-03-12T17:40:41.502Z,99.90
2023-03-12T17:43:08.282Z,99.90
2023-03-12T17:45:36.549Z,99.90
2023-03-12T17:48:03.428Z,99.90
2023-03-12T17:50:30.295Z,99.90
2023-03-12T17:52:57.062Z,99.90
2023-03-12T17:55:23.832Z,99.90
2023-03-12T17:57:52.707Z,99.90
2023-03-12T18:00:23.036Z,99.90
2023-03-12T18:02:50.263Z,99.90
2023-03-12T18:05:17.236Z,99.90
2023-03-12T18:07:44.035Z,99.90
2023-03-12T18:10:11.166Z,99.90
2023-03-12T18:12:39.015Z,99.90
2023-03-12T18:15:06.619Z,99.90
2023-03-12T18:17:33.996Z,99.90
2023-03-12T18:20:00.791Z,99.90
2023-03-12T18:22:27.722Z,99.90
2023-03-12T18:24:54.603Z,99.90
2023-03-12T18:27:21.282Z,99.90
2023-03-12T18:29:48.380Z,99.90
2023-03-12T18:32:15.233Z,99.90
2023-03-12T18:34:44.585Z,99.90
2023-03-12T18:37:11.596Z,99.90
2023-03-12T18:39:38.405Z,99.90
2023-03-12T18:42:05.253Z,99.90
2023-03-12T18:44:34.637Z,99.90
2023-03-12T18:47:01.535Z,99.90
2023-03-12T18:49:28.745Z,99.90
2023-03-12T18:51:56.147Z,99.90
2023-03-12T18:54:25.634Z,99.90
2023-03-12T18:56:52.378Z,99.90
2023-03-12T18:59:21.371Z,99.90
2023-03-12T19:01:50.833Z,99.90
2023-03-12T19:04:21.211Z,99.90
2023-03-12T19:06:51.531Z,99.90
2023-03-12T19:09:21.250Z,99.90
2023-03-12T19:11:48.510Z,99.90
2023-03-12T19:14:15.504Z,99.90
2023-03-12T19:16:42.379Z,99.90
2023-03-12T19:19:09.385Z,99.90
2023-03-12T19:21:38.713Z,99.90
2023-03-12T19:24:05.716Z,99.90
2023-03-12T19:26:34.922Z,99.90
2023-03-12T19:29:01.799Z,99.90
2023-03-12T19:31:28.827Z,99.90
2023-03-12T19:33:55.662Z,99.90
2023-03-12T19:36:22.431Z,99.90
2023-03-12T19:38:49.352Z,99.90
2023-03-12T19:41:18.391Z,99.90
2023-03-12T19:43:46.831Z,99.90
2023-03-12T19:46:16.099Z,99.90
2023-03-12T19:48:43.072Z,99.90
2023-03-12T19:51:11.074Z,99.90
2023-03-12T19:53:38.018Z,99.90
2023-03-12T19:56:08.301Z,99.90
2023-03-12T19:58:37.413Z,99.90
2023-03-12T20:01:04.214Z,99.90
2023-03-12T20:03:32.797Z,99.90
2023-03-12T20:05:59.866Z,99.90
2023-03-12T20:08:35.224Z,99.90
2023-03-12T20:11:03.128Z,99.90
2023-03-12T20:13:32.141Z,99.90
2023-03-12T20:16:02.340Z,99.90
2023-03-12T20:18:29.477Z,99.90
2023-03-12T20:20:56.412Z,99.90
2023-03-12T20:23:23.379Z,99.90
2023-03-12T20:25:50.619Z,99.90
2023-03-12T20:28:17.809Z,99.90
2023-03-12T20:30:44.822Z,99.90
2023-03-12T20:33:11.676Z,99.90
2023-03-12T20:35:38.587Z,99.90
2023-03-12T20:38:05.490Z,99.90
2023-03-12T20:40:32.293Z,99.90
2023-03-12T20:43:00.258Z,99.90
2023-03-12T20:45:27.076Z,99.90
2023-03-12T20:47:53.956Z,99.90
2023-03-12T20:50:20.758Z,99.90
2023-03-12T20:52:47.724Z,99.90
2023-03-12T20:55:14.570Z,99.90
2023-03-12T20:57:41.445Z,99.90
2023-03-12T21:00:10.940Z,99.90
2023-03-12T21:02:40.318Z,99.90
2023-03-12T21:05:11.297Z,99.90
2023-03-12T21:07:38.167Z,99.90
2023-03-12T21:10:05.239Z,99.90
2023-03-12T21:12:34.392Z,99.90
2023-03-12T21:15:07.000Z,99.90
2023-03-12T21:17:36.702Z,99.90
2023-03-12T21:20:04.398Z,99.90
2023-03-12T21:22:31.858Z,99.90
2023-03-12T21:24:58.596Z,99.90
2023-03-12T21:27:25.417Z,99.90
2023-03-12T21:29:52.653Z,99.90
2023-03-12T21:32:22.398Z,99.90
2023-03-12T21:34:49.532Z,99.90
2023-03-12T21:37:18.717Z,99.90
2023-03-12T21:39:45.547Z,99.90
2023-03-12T21:42:12.327Z,99.90
2023-03-12T21:44:44.041Z,99.90
2023-03-12T21:47:10.773Z,99.90
2023-03-12T21:49:37.519Z,99.90
2023-03-12T21:52:04.470Z,99.90
2023-03-12T21:54:35.093Z,99.90
2023-03-12T21:57:04.820Z,99.90
2023-03-12T21:59:34.176Z,99.90
2023-03-12T22:02:01.019Z,99.90
2023-03-12T22:04:28.138Z,99.90
2023-03-12T22:06:56.541Z,99.90
2023-03-12T22:09:25.643Z,99.90
2023-03-12T22:11:52.360Z,99.90
2023-03-12T22:14:23.783Z,99.90
2023-03-12T22:16:50.567Z,99.90
2023-03-12T22:19:19.105Z,99.90
2023-03-12T22:21:45.943Z,99.90
2023-03-12T22:24:14.918Z,99.90
2023-03-12T22:26:41.819Z,99.90
2023-03-12T22:29:09.072Z,99.90
2023-03-12T22:31:38.460Z,99.90
2023-03-12T22:34:08.100Z,99.90
2023-03-12T22:36:39.189Z,99.90
2023-03-12T22:39:06.188Z,99.90
2023-03-12T22:41:33.160Z,99.90
2023-03-12T22:44:09.000Z,99.90
2023-03-12T22:46:36.201Z,99.90
2023-03-12T22:49:04.071Z,99.90
2023-03-12T22:51:32.349Z,99.90
2023-03-12T22:54:02.411Z,99.90
2023-03-12T22:56:33.955Z,99.90
2023-03-12T22:59:02.986Z,99.90
2023-03-12T23:01:32.258Z,99.90
2023-03-12T23:03:59.766Z,99.90
2023-03-12T23:06:30.460Z,99.90
2023-03-12T23:08:58.175Z,99.90
2023-03-12T23:11:26.432Z,99.90
2023-03-12T23:13:54.147Z,99.90
2023-03-12T23:16:25.236Z,99.90
2023-03-12T23:18:52.184Z,99.90
2023-03-12T23:21:21.949Z,99.90
2023-03-12T23:23:50.290Z,99.90
2023-03-12T23:26:22.851Z,99.90
2023-03-12T23:28:53.202Z,99.90
2023-03-12T23:31:22.842Z,99.90
2023-03-12T23:33:52.424Z,99.90
2023-03-12T23:36:21.319Z,99.90
2023-03-12T23:38:51.392Z,99.90
2023-03-12T23:41:20.867Z,99.90
2023-03-12T23:43:51.097Z,99.90
2023-03-12T23:46:18.823Z,99.90
2023-03-12T23:48:45.946Z,99.90
2023-03-12T23:51:23.151Z,99.90
2023-03-12T23:53:54.569Z,99.90
2023-03-12T23:56:29.210Z,99.90
2023-03-12T23:58:56.080Z,99.90
